createdAt,value
2023-04-01T00:04:55.563Z,5.07
2023-04-01T00:09:58.321Z,2.35
2023-04-01T00:15:01.258Z,4.57
2023-04-01T00:20:08.552Z,4.07
2023-04-01T00:30:15.714Z,3.25
2023-04-01T00:35:18.478Z,2.97
2023-04-01T00:40:26.353Z,3.13
2023-04-01T00:45:38.778Z,3.70
2023-04-01T00:50:45.032Z,2.47
2023-04-01T00:56:04.600Z,2.70
2023-04-01T01:01:09.514Z,3.45
2023-04-01T01:06:33.395Z,3.47
2023-04-01T01:11:48.734Z,3.42
2023-04-01T01:17:01.274Z,3.10
2023-04-01T01:22:07.239Z,3.35
2023-04-01T01:27:17.053Z,2.67
2023-04-01T01:32:52.577Z,3.80
2023-04-01T01:38:04.998Z,2.08
2023-04-01T01:43:12.174Z,2.38
2023-04-01T01:48:16.551Z,3.63
2023-04-01T01:53:19.189Z,3.40
2023-04-01T01:58:41.606Z,2.83
2023-04-01T02:03:48.108Z,3.10
2023-04-01T02:09:04.278Z,2.03
2023-04-01T02:14:18.305Z,2.15
2023-04-01T02:19:24.137Z,3.08
2023-04-01T02:24:31.632Z,2.88
2023-04-01T02:29:34.537Z,2.65
2023-04-01T02:34:38.680Z,1.67
2023-04-01T02:39:41.852Z,1.75
2023-04-01T02:44:44.694Z,2.50
2023-04-01T02:49:47.681Z,3.58
2023-04-01T02:54:50.872Z,2.45
2023-04-01T02:59:53.727Z,1.65
2023-04-01T03:04:56.487Z,3.00
2023-04-01T03:09:59.300Z,2.63
2023-04-01T03:15:11.009Z,1.52
2023-04-01T03:20:16.324Z,1.60
2023-04-01T03:25:19.668Z,3.55
2023-04-01T03:30:22.442Z,2.75
2023-04-01T03:35:27.702Z,1.60
2023-04-01T03:40:30.422Z,1.73
2023-04-01T03:45:33.280Z,1.92
2023-04-01T03:50:36.797Z,2.63
2023-04-01T03:55:40.620Z,1.73
2023-04-01T04:00:43.244Z,2.50
2023-04-01T04:05:50.426Z,3.75
2023-04-01T04:10:57.578Z,3.20
2023-04-01T04:16:01.247Z,2.40
2023-04-01T04:21:05.531Z,2.97
2023-04-01T04:26:10.550Z,2.83
2023-04-01T04:36:18.747Z,3.03
2023-04-01T04:47:36.866Z,2.53
2023-04-01T04:52:42.471Z,6.40
2023-04-01T04:57:47.128Z,3.70
2023-04-01T05:02:50.135Z,2.90
2023-04-01T05:07:54.359Z,3.05
2023-04-01T05:12:58.894Z,2.30
2023-04-01T05:18:02.191Z,3.05
2023-04-01T05:23:05.516Z,2.90
2023-04-01T05:28:08.613Z,3.33
2023-04-01T05:33:13.493Z,3.22
2023-04-01T05:38:16.728Z,3.33
2023-04-01T05:43:19.271Z,2.38
2023-04-01T05:48:24.733Z,2.70
2023-04-01T05:53:27.770Z,3.50
2023-04-01T05:58:30.442Z,3.85
2023-04-01T06:03:33.661Z,3.40
2023-04-01T06:08:36.743Z,3.40
2023-04-01T06:14:18.445Z,2.90
2023-04-01T06:19:48.752Z,3.58
2023-04-01T06:25:09.145Z,3.78
2023-04-01T06:30:41.668Z,2.83
2023-04-01T06:35:58.971Z,4.00
2023-04-01T06:41:18.058Z,3.65
2023-04-01T06:46:43.973Z,3.92
2023-04-01T06:52:05.315Z,3.35
2023-04-01T06:57:35.755Z,3.58
2023-04-01T07:02:56.977Z,3.17
2023-04-01T07:08:05.117Z,3.20
2023-04-01T07:13:14.260Z,2.95
2023-04-01T07:18:44.186Z,2.60
2023-04-01T07:23:48.795Z,2.90
2023-04-01T07:29:20.713Z,2.90
2023-04-01T07:35:06.720Z,2.13
2023-04-01T07:40:19.040Z,2.35
2023-04-01T07:45:46.965Z,3.63
2023-04-01T07:51:37.908Z,2.55
2023-04-01T07:57:02.938Z,2.05
2023-04-01T08:03:04.672Z,1.90
2023-04-01T08:08:36.668Z,2.40
2023-04-01T08:14:28.716Z,2.17
2023-04-01T08:20:29.274Z,2.78
2023-04-01T08:25:35.387Z,2.72
2023-04-01T08:30:49.926Z,2.22
2023-04-01T08:36:10.613Z,1.90
2023-04-01T08:41:47.772Z,2.40
2023-04-01T08:47:33.663Z,2.15
2023-04-01T08:52:43.457Z,2.25
2023-04-01T08:58:26.620Z,2.45
2023-04-01T09:04:00.915Z,1.98
2023-04-01T09:09:30.110Z,1.95
2023-04-01T09:14:37.025Z,1.73
2023-04-01T09:20:59.117Z,2.45
2023-04-01T09:26:38.808Z,1.73
2023-04-01T09:31:54.002Z,1.85
2023-04-01T09:37:31.405Z,1.77
2023-04-01T09:48:31.840Z,1.98
2023-04-01T09:54:23.367Z,1.88
2023-04-01T09:59:41.824Z,1.80
2023-04-01T10:05:20.848Z,2.30
2023-04-01T10:10:31.052Z,1.77
2023-04-01T10:16:01.864Z,2.28
2023-04-01T10:21:16.040Z,2.05
2023-04-01T10:26:22.624Z,2.13
2023-04-01T10:31:59.779Z,1.55
2023-04-01T10:37:28.711Z,1.60
2023-04-01T10:42:53.106Z,1.30
2023-04-01T10:48:55.076Z,1.80
2023-04-01T10:54:28.451Z,2.00
2023-04-01T11:00:13.517Z,2.10
2023-04-01T11:05:57.593Z,1.50
2023-04-01T11:11:22.814Z,2.03
2023-04-01T11:16:52.692Z,1.92
2023-04-01T11:22:23.095Z,1.75
2023-04-01T11:27:50.182Z,1.55
2023-04-01T11:33:17.724Z,1.42
2023-04-01T11:39:00.456Z,1.65
2023-04-01T11:44:35.065Z,2.45
2023-04-01T11:50:16.120Z,1.60
2023-04-01T12:00:46.337Z,2.08
2023-04-01T12:11:17.832Z,1.52
2023-04-01T12:17:05.203Z,1.88
2023-04-01T12:22:36.516Z,1.60
2023-04-01T12:27:43.493Z,1.90
2023-04-01T12:33:13.583Z,1.73
2023-04-01T12:38:30.171Z,1.67
2023-04-01T12:44:22.561Z,1.27
2023-04-01T12:49:54.457Z,1.33
2023-04-01T12:55:20.172Z,1.30
2023-04-01T13:00:59.125Z,1.58
2023-04-01T13:06:23.294Z,1.55
2023-04-01T13:11:52.597Z,1.15
2023-04-01T13:17:32.394Z,1.50
2023-04-01T13:22:48.048Z,1.50
2023-04-01T13:28:10.724Z,2.55
2023-04-01T13:33:13.339Z,2.40
2023-04-01T13:38:25.296Z,1.88
2023-04-01T13:43:36.500Z,2.28
2023-04-01T13:48:51.126Z,1.50
2023-04-01T13:54:31.743Z,1.80
2023-04-01T14:00:02.371Z,2.10
2023-04-01T14:05:42.127Z,1.73
2023-04-01T14:11:05.942Z,1.80
2023-04-01T14:16:14.736Z,2.25
2023-04-01T14:21:43.097Z,2.65
2023-04-01T14:26:55.955Z,2.65
2023-04-01T14:32:26.844Z,2.58
2023-04-01T14:37:52.268Z,3.10
2023-04-01T14:43:18.928Z,3.60
2023-04-01T14:48:43.018Z,3.83
2023-04-01T14:59:21.354Z,3.47
2023-04-01T15:04:47.108Z,3.05
2023-04-01T15:10:12.297Z,4.07
2023-04-01T15:15:38.877Z,4.85
2023-04-01T15:20:49.613Z,4.78
2023-04-01T15:25:58.973Z,8.70
2023-04-01T15:31:36.550Z,8.95
2023-04-01T15:37:23.916Z,4.25
2023-04-01T15:42:49.477Z,8.38
2023-04-01T15:48:12.060Z,7.68
2023-04-01T15:53:27.050Z,7.05
2023-04-01T15:59:01.409Z,6.30
2023-04-01T16:04:46.095Z,6.63
2023-04-01T16:10:06.533Z,6.63
2023-04-01T16:15:49.383Z,5.47
2023-04-01T16:21:16.226Z,7.93
2023-04-01T16:26:44.332Z,5.50
2023-04-01T16:31:53.815Z,6.22
2023-04-01T16:37:21.921Z,5.70
2023-04-01T16:42:28.025Z,5.80
2023-04-01T16:47:49.390Z,5.25
2023-04-01T16:53:17.151Z,6.05
2023-04-01T16:58:58.276Z,4.45
2023-04-01T17:04:09.928Z,4.30
2023-04-01T17:09:48.343Z,4.88
2023-04-01T17:15:03.290Z,4.78
2023-04-01T17:20:43.730Z,4.70
2023-04-01T17:25:49.502Z,4.30
2023-04-01T17:30:55.517Z,4.75
2023-04-01T17:36:18.087Z,6.10
2023-04-01T17:41:50.607Z,5.07
2023-04-01T17:47:19.071Z,6.13
2023-04-01T17:52:39.070Z,5.63
2023-04-01T17:57:57.381Z,6.97
2023-04-01T18:03:17.999Z,6.40
2023-04-01T18:08:42.537Z,7.63
2023-04-01T18:13:57.245Z,8.75
2023-04-01T18:19:08.633Z,9.55
2023-04-01T18:24:30.696Z,9.82
2023-04-01T18:29:54.862Z,11.63
2023-04-01T18:35:17.098Z,10.52
2023-04-01T18:40:38.922Z,14.95
2023-04-01T18:45:44.820Z,15.57
2023-04-01T18:51:09.751Z,16.35
2023-04-01T18:56:37.294Z,15.88
2023-04-01T19:02:26.152Z,15.70
2023-04-01T19:07:32.021Z,15.07
2023-04-01T19:12:37.708Z,14.27
2023-04-01T19:18:03.938Z,12.23
2023-04-01T19:23:09.613Z,12.63
2023-04-01T19:28:31.014Z,11.55
2023-04-01T19:33:55.621Z,9.20
2023-04-01T19:39:39.368Z,8.75
2023-04-01T19:45:03.680Z,10.20
2023-04-01T19:50:30.590Z,9.80
2023-04-01T19:55:49.810Z,12.20
2023-04-01T20:01:00.409Z,15.20
2023-04-01T20:06:19.875Z,14.90
2023-04-01T20:11:36.403Z,16.58
2023-04-01T20:16:51.764Z,21.52
2023-04-01T20:21:59.319Z,22.33
2023-04-01T20:27:14.544Z,20.40
2023-04-01T20:32:28.189Z,18.77
2023-04-01T20:37:46.315Z,13.15
2023-04-01T20:43:33.275Z,11.98
2023-04-01T20:49:04.249Z,11.55
2023-04-01T20:54:28.317Z,10.00
2023-04-01T20:59:31.079Z,8.50
2023-04-01T21:05:31.226Z,8.85
2023-04-01T21:10:36.755Z,8.30
2023-04-01T21:15:48.130Z,10.18
2023-04-01T21:21:12.041Z,9.73
2023-04-01T21:26:44.248Z,8.77
2023-04-01T21:32:00.675Z,9.13
2023-04-01T21:37:06.047Z,9.02
2023-04-01T21:42:43.751Z,8.40
2023-04-01T21:47:46.385Z,8.20
2023-04-01T21:53:26.216Z,8.13
2023-04-01T21:58:43.957Z,7.00
2023-04-01T22:04:17.767Z,6.88
2023-04-01T22:09:37.056Z,6.93
2023-04-01T22:14:51.866Z,6.85
2023-04-01T22:20:10.517Z,5.55
2023-04-01T22:25:23.916Z,6.00
2023-04-01T22:30:34.021Z,5.38
2023-04-01T22:35:52.407Z,4.82
2023-04-01T22:46:22.917Z,4.57
2023-04-01T22:51:55.558Z,4.30
2023-04-01T22:57:11.729Z,4.43
2023-04-01T23:02:23.382Z,3.30
2023-04-01T23:07:54.610Z,3.65
2023-04-01T23:13:01.701Z,3.25
2023-04-01T23:18:29.286Z,3.78
2023-04-01T23:23:43.879Z,4.15
2023-04-01T23:28:53.380Z,3.28
2023-04-01T23:34:16.047Z,3.53
2023-04-01T23:39:50.326Z,3.35
2023-04-01T23:44:56.793Z,3.88
2023-04-01T23:50:04.647Z,3.05
2023-04-01T23:55:14.262Z,3.53
